Time;durP1;ratioP1;P1;durP2;ratioP2;P2;SDS_P1;SDS_P2;PMS_P1;PMS_P2;Temp;Humidity;BMP_temperature;BMP_pressure;BME280_temperature;BME280_humidity;BME280_pressure;Samples;Min_cycle;Max_cycle;Signal;HPM_P1;HPM_P2
2022/12/29 00:01:58;;;;;;;0.67;0.67;;;;;11.20;99584.00;;;;9774833;30;20228;-78
2022/12/29 00:07:00;;;;;;;2.13;0.77;;;;;11.10;99585.00;;;;9757623;30;21006;-78
2022/12/29 00:12:03;;;;;;;0.83;0.80;;;;;11.20;99574.00;;;;9810472;30;20213;-78
2022/12/29 00:17:05;;;;;;;1.00;0.90;;;;;11.20;99553.00;;;;9807642;30;20209;-79
2022/12/29 00:54:15;;;;;;;1.87;0.77;;;;;11.30;99528.00;;;;9779105;30;20216;-78
2022/12/29 00:59:19;;;;;;;1.93;0.80;;;;;11.40;99540.00;;;;9791134;30;20213;-78
2022/12/29 01:04:23;;;;;;;2.13;0.80;;;;;11.40;99540.00;;;;9805705;30;20196;-78
2022/12/29 01:14:46;;;;;;;2.53;1.13;;;;;11.40;99556.00;;;;9790369;30;20263;-78
2022/12/29 01:19:48;;;;;;;2.90;0.70;;;;;11.40;99537.00;;;;9770981;30;20226;-79
2022/12/29 01:24:50;;;;;;;4.63;0.80;;;;;11.20;99547.00;;;;9800005;30;20287;-78
2022/12/29 01:29:51;;;;;;;1.67;0.50;;;;;11.00;99549.00;;;;9792210;30;20209;-77
2022/12/29 01:34:53;;;;;;;2.40;0.70;;;;;10.80;99546.00;;;;9821070;30;20205;-78
2022/12/29 01:39:55;;;;;;;6.20;1.20;;;;;10.80;99552.00;;;;9806356;30;20743;-79
2022/12/29 01:45:01;;;;;;;0.93;0.70;;;;;10.60;99552.00;;;;9790983;30;20669;-78
2022/12/29 01:50:29;;;;;;;3.10;0.83;;;;;10.60;99543.00;;;;9791040;30;20205;-78
2022/12/29 01:55:36;;;;;;;1.93;0.70;;;;;10.60;99554.00;;;;9782516;30;20235;-78
2022/12/29 02:00:38;;;;;;;0.90;0.57;;;;;10.60;99545.00;;;;9804552;30;20259;-78
2022/12/29 02:06:02;;;;;;;0.93;0.60;;;;;10.50;99548.00;;;;9789996;30;20246;-78
2022/12/29 02:11:04;;;;;;;2.20;0.70;;;;;10.50;99551.00;;;;9803820;30;20212;-78
2022/12/29 02:16:36;;;;;;;0.83;0.60;;;;;10.40;99553.00;;;;9790040;30;20284;-78
2022/12/29 02:21:41;;;;;;;2.63;0.60;;;;;10.10;99555.00;;;;9764905;30;20213;-79
2022/12/29 02:27:02;;;;;;;4.50;0.80;;;;;9.90;99568.00;;;;9806362;30;20299;-79
2022/12/29 02:32:38;;;;;;;2.10;0.60;;;;;9.70;99567.00;;;;9810430;30;20223;-79
2022/12/29 02:37:43;;;;;;;1.23;0.50;;;;;9.50;99543.00;;;;9795038;30;20657;-78
2022/12/29 02:42:56;;;;;;;0.87;0.40;;;;;9.50;99534.00;;;;9795848;30;20217;-78
2022/12/29 02:48:08;;;;;;;1.90;0.60;;;;;9.40;99534.00;;;;9795876;30;20640;-79
2022/12/29 02:53:16;;;;;;;1.30;0.50;;;;;9.30;99515.00;;;;9794940;30;20198;-78
2022/12/29 02:58:23;;;;;;;1.40;0.40;;;;;9.30;99505.00;;;;9794033;30;20209;-78
2022/12/29 03:03:41;;;;;;;1.70;0.43;;;;;9.20;99513.00;;;;9781582;30;20229;-78
2022/12/29 03:09:27;;;;;;;1.97;0.40;;;;;9.20;99533.00;;;;9792877;30;20263;-77
2022/12/29 03:20:04;;;;;;;2.80;0.80;;;;;9.00;99524.00;;;;9808853;30;20252;-78
2022/12/29 03:25:14;;;;;;;5.73;0.80;;;;;8.90;99524.00;;;;9776171;30;20279;-78
2022/12/29 03:30:17;;;;;;;4.00;0.87;;;;;8.80;99504.00;;;;9793823;30;20201;-78
2022/12/29 03:35:22;;;;;;;4.40;1.00;;;;;8.70;99509.00;;;;9779846;30;20205;-77
2022/12/29 03:40:26;;;;;;;2.67;0.47;;;;;8.80;99511.00;;;;9808085;30;20693;-77
2022/12/29 03:45:28;;;;;;;0.73;0.60;;;;;8.90;99515.00;;;;9793740;30;20213;-77
2022/12/29 03:50:30;;;;;;;1.23;0.60;;;;;9.00;99517.00;;;;9794816;30;20189;-77
2022/12/29 03:55:32;;;;;;;1.67;0.70;;;;;9.20;99532.00;;;;9779991;30;20275;-76
2022/12/29 04:00:34;;;;;;;2.13;1.00;;;;;9.20;99523.00;;;;9794106;30;20213;-78
2022/12/29 04:05:37;;;;;;;2.93;1.00;;;;;9.20;99526.00;;;;9779629;30;20267;-77
2022/12/29 04:10:39;;;;;;;3.17;0.70;;;;;9.20;99537.00;;;;9780201;30;20296;-77
2022/12/29 04:15:44;;;;;;;3.83;0.77;;;;;9.20;99554.00;;;;9807801;30;20227;-77
2022/12/29 04:21:02;;;;;;;3.43;0.90;;;;;9.10;99548.00;;;;9777355;30;20227;-77
2022/12/29 04:26:07;;;;;;;2.83;0.80;;;;;9.00;99556.00;;;;9778403;30;20233;-77
2022/12/29 04:31:13;;;;;;;1.67;1.00;;;;;9.00;99552.00;;;;9788010;30;20208;-77
2022/12/29 04:36:17;;;;;;;2.80;0.63;;;;;9.00;99576.00;;;;9785114;30;20206;-77
2022/12/29 04:41:19;;;;;;;2.50;0.60;;;;;9.10;99574.00;;;;9784744;30;20365;-77
2022/12/29 04:46:22;;;;;;;2.20;0.70;;;;;9.20;99579.00;;;;9797177;30;20220;-77
2022/12/29 04:51:32;;;;;;;2.60;0.77;;;;;9.30;99588.00;;;;9793226;30;20268;-77
2022/12/29 04:56:34;;;;;;;6.43;1.10;;;;;9.40;99585.00;;;;9792736;30;20657;-77
2022/12/29 05:01:36;;;;;;;2.73;0.80;;;;;9.30;99588.00;;;;9792414;30;20256;-77
2022/12/29 05:06:38;;;;;;;6.53;1.27;;;;;9.30;99585.00;;;;9806865;30;20679;-77
2022/12/29 05:11:41;;;;;;;4.03;0.57;;;;;9.40;99582.00;;;;9778188;30;20207;-77
2022/12/29 05:16:44;;;;;;;3.50;0.90;;;;;9.50;99575.00;;;;9805963;30;20205;-77
2022/12/29 05:21:46;;;;;;;4.23;1.03;;;;;9.50;99589.00;;;;9788205;30;20217;-78
2022/12/29 05:26:48;;;;;;;9.50;0.80;;;;;9.60;99600.00;;;;9770201;30;20230;-77
2022/12/29 05:32:07;;;;;;;7.57;1.03;;;;;9.70;99590.00;;;;9805977;30;20623;-77
2022/12/29 05:37:09;;;;;;;2.47;0.70;;;;;9.70;99568.00;;;;9776925;30;20205;-77
2022/12/29 05:42:14;;;;;;;5.80;1.30;;;;;9.80;99573.00;;;;9805603;30;20256;-77
2022/12/29 05:47:26;;;;;;;6.47;1.17;;;;;9.80;99585.00;;;;9819289;30;20671;-77
2022/12/29 05:52:44;;;;;;;8.03;1.27;;;;;9.80;99602.00;;;;9777986;30;20661;-77
2022/12/29 05:57:46;;;;;;;7.93;1.63;;;;;9.70;99599.00;;;;9791056;30;20205;-77
2022/12/29 06:02:50;;;;;;;6.33;1.10;;;;;9.70;99596.00;;;;9790117;30;20217;-77
2022/12/29 06:07:52;;;;;;;5.63;0.97;;;;;9.60;99610.00;;;;9790724;30;20296;-77
2022/12/29 06:12:54;;;;;;;3.80;1.23;;;;;9.60;99613.00;;;;9790094;30;20205;-78
2022/12/29 06:17:57;;;;;;;6.37;1.63;;;;;9.50;99617.00;;;;9789676;30;20211;-77
2022/12/29 06:22:59;;;;;;;6.77;1.37;;;;;9.50;99623.00;;;;9775921;30;20229;-77
2022/12/29 06:28:02;;;;;;;8.60;1.50;;;;;9.50;99626.00;;;;9775506;30;20241;-77
2022/12/29 06:33:04;;;;;;;7.23;1.30;;;;;9.40;99623.00;;;;9789108;30;20194;-77
2022/12/29 06:38:06;;;;;;;6.77;1.50;;;;;9.40;99644.00;;;;9776323;30;20220;-78
2022/12/29 06:43:08;;;;;;;2.10;0.80;;;;;9.50;99647.00;;;;9790134;30;20217;-78
2022/12/29 06:48:17;;;;;;;5.17;1.53;;;;;9.50;99637.00;;;;9758829;30;20210;-78
2022/12/29 06:53:19;;;;;;;11.50;1.57;;;;;9.70;99646.00;;;;9762459;30;20202;-78
2022/12/29 06:58:21;;;;;;;2.50;0.60;;;;;9.70;99643.00;;;;9785500;30;20205;-78
2022/12/29 07:03:22;;;;;;;7.70;1.07;;;;;9.70;99646.00;;;;9780159;30;20222;-78
2022/12/29 07:08:25;;;;;;;9.37;1.30;;;;;9.70;99662.00;;;;9826825;30;20207;-78
2022/12/29 07:13:26;;;;;;;6.53;1.03;;;;;9.60;99678.00;;;;9802004;30;20674;-78
2022/12/29 07:18:28;;;;;;;4.10;0.80;;;;;9.60;99693.00;;;;9789671;30;20233;-78
2022/12/29 07:23:30;;;;;;;7.77;1.17;;;;;9.60;99687.00;;;;9778989;30;20221;-78
2022/12/29 07:28:35;;;;;;;10.90;1.27;;;;;9.60;99676.00;;;;9815877;30;20212;-78
2022/12/29 07:33:36;;;;;;;5.13;1.00;;;;;9.70;99664.00;;;;9762424;30;20204;-78
2022/12/29 07:38:38;;;;;;;5.40;1.20;;;;;9.70;99696.00;;;;9803598;30;20221;-77
2022/12/29 07:43:40;;;;;;;4.93;1.27;;;;;9.80;99691.00;;;;9810385;30;20764;-78
2022/12/29 07:48:59;;;;;;;7.40;1.37;;;;;9.90;99699.00;;;;9780265;30;20216;-78
2022/12/29 07:54:01;;;;;;;9.67;1.63;;;;;9.90;99686.00;;;;9790753;30;20213;-78
2022/12/29 07:59:03;;;;;;;7.80;1.10;;;;;9.90;99699.00;;;;9761755;30;20209;-78
2022/12/29 08:04:08;;;;;;;3.30;0.90;;;;;9.90;99705.00;;;;9778416;30;20222;-78
2022/12/29 08:09:11;;;;;;;7.03;1.50;;;;;10.00;99716.00;;;;9794413;30;20213;-80
2022/12/29 08:14:22;;;;;;;12.60;1.73;;;;;10.00;99716.00;;;;9795791;30;20213;-77
2022/12/29 08:19:24;;;;;;;4.67;1.43;;;;;10.00;99699.00;;;;9779557;30;20646;-78
2022/12/29 08:24:26;;;;;;;6.30;1.10;;;;;10.10;99706.00;;;;9784566;30;20230;-78
2022/12/29 08:29:28;;;;;;;5.93;1.23;;;;;10.10;99724.00;;;;9793796;30;20202;-78
2022/12/29 08:34:31;;;;;;;8.13;1.77;;;;;10.10;99741.00;;;;9793262;30;20218;-78
2022/12/29 08:39:33;;;;;;;5.67;1.40;;;;;10.10;99739.00;;;;9785904;30;20312;-77
2022/12/29 08:44:35;;;;;;;6.07;1.27;;;;;10.10;99724.00;;;;9820213;30;20209;-77
2022/12/29 08:49:37;;;;;;;4.80;1.50;;;;;10.20;99730.00;;;;9790678;30;20597;-77
2022/12/29 08:54:39;;;;;;;9.23;1.80;;;;;10.40;99748.00;;;;9807018;30;20190;-78
2022/12/29 08:59:41;;;;;;;4.53;1.20;;;;;10.40;99749.00;;;;9789431;30;20200;-78
2022/12/29 09:04:45;;;;;;;10.73;1.53;;;;;10.40;99761.00;;;;9792083;30;20884;-77
2022/12/29 09:09:47;;;;;;;10.43;1.93;;;;;10.40;99781.00;;;;9792350;30;20208;-78
2022/12/29 09:14:49;;;;;;;11.30;1.80;;;;;10.50;99777.00;;;;9791325;30;20211;-77
2022/12/29 09:19:51;;;;;;;8.00;1.40;;;;;10.30;99797.00;;;;9788117;30;20256;-77
2022/12/29 09:24:52;;;;;;;8.07;1.60;;;;;10.10;99766.00;;;;9777278;30;20606;-77
2022/12/29 09:29:56;;;;;;;7.97;1.67;;;;;10.10;99822.00;;;;9776595;30;20216;-78
2022/12/29 09:34:58;;;;;;;5.83;1.70;;;;;10.20;99838.00;;;;9785504;30;20224;-78
2022/12/29 09:39:59;;;;;;;8.07;1.63;;;;;10.00;99845.00;;;;9775689;30;20214;-78
2022/12/29 09:45:14;;;;;;;7.33;1.53;;;;;10.00;99870.00;;;;9787791;30;20307;-78
2022/12/29 09:50:19;;;;;;;8.33;1.63;;;;;10.10;99853.00;;;;9782904;30;20223;-78
2022/12/29 09:55:35;;;;;;;11.40;2.00;;;;;9.90;99865.00;;;;9759620;30;20208;-77
2022/12/29 10:00:48;;;;;;;8.40;2.00;;;;;10.10;99870.00;;;;9803076;30;20267;-77
2022/12/29 10:06:17;;;;;;;7.13;2.00;;;;;10.70;99864.00;;;;9773776;30;20641;-78
2022/12/29 10:11:43;;;;;;;10.67;1.80;;;;;11.60;99871.00;;;;9767796;30;20677;-78
2022/12/29 10:17:04;;;;;;;7.37;1.60;;;;;11.20;99887.00;;;;9765092;30;20216;-78
2022/12/29 10:22:37;;;;;;;6.67;1.53;;;;;10.80;99902.00;;;;9786808;30;20221;-78
2022/12/29 10:27:39;;;;;;;7.20;2.30;;;;;11.00;99889.00;;;;9794192;30;20588;-78
2022/12/29 10:32:48;;;;;;;7.47;1.60;;;;;11.40;99900.00;;;;9787913;30;20205;-78
2022/12/29 10:38:15;;;;;;;8.87;1.63;;;;;11.70;99901.00;;;;9803697;30;20222;-79
2022/12/29 10:43:36;;;;;;;13.40;2.43;;;;;12.20;99914.00;;;;9782444;30;20248;-78
2022/12/29 10:48:38;;;;;;;7.97;2.00;;;;;12.20;99912.00;;;;9763089;30;20688;-78
2022/12/29 10:53:46;;;;;;;11.97;2.40;;;;;12.30;99916.00;;;;9773594;30;20208;-79
2022/12/29 10:58:49;;;;;;;8.63;1.83;;;;;12.50;99932.00;;;;9789876;30;20205;-79
2022/12/29 11:04:03;;;;;;;7.20;2.00;;;;;12.60;99932.00;;;;9773413;30;20305;-78
2022/12/29 11:09:27;;;;;;;6.67;1.53;;;;;13.00;99931.00;;;;9802463;30;20219;-78
2022/12/29 11:14:43;;;;;;;13.87;2.43;;;;;12.60;99959.00;;;;9786428;30;20259;-78
2022/12/29 11:19:45;;;;;;;6.20;1.43;;;;;12.70;99956.00;;;;9803251;30;20205;-79
2022/12/29 11:24:50;;;;;;;5.97;1.60;;;;;12.40;99968.00;;;;9781915;30;20244;-77
2022/12/29 11:29:53;;;;;;;10.17;2.20;;;;;12.70;99960.00;;;;9768208;30;20205;-78
2022/12/29 11:34:57;;;;;;;9.13;1.60;;;;;13.10;99977.00;;;;9807679;30;20232;-79
2022/12/29 11:40:04;;;;;;;7.90;1.63;;;;;12.50;99998.00;;;;9779992;30;20208;-78
2022/12/29 11:45:28;;;;;;;9.90;1.67;;;;;11.40;100010.00;;;;9767166;30;20724;-79
2022/12/29 11:50:33;;;;;;;6.73;1.50;;;;;10.60;100018.00;;;;9796296;30;20561;-79
2022/12/29 11:55:34;;;;;;;7.63;2.00;;;;;10.50;100021.00;;;;9761022;30;20487;-78
2022/12/29 12:00:40;;;;;;;6.43;1.60;;;;;10.50;100028.00;;;;9760746;30;20212;-78
2022/12/29 12:05:52;;;;;;;9.40;1.67;;;;;10.10;100012.00;;;;9771653;30;20209;-78
2022/12/29 12:11:14;;;;;;;10.77;1.87;;;;;10.10;100009.00;;;;9789058;30;20225;-78
2022/12/29 12:16:20;;;;;;;8.63;2.37;;;;;10.20;100001.00;;;;9766107;30;20526;-78
2022/12/29 12:21:40;;;;;;;7.57;1.40;;;;;10.20;100010.00;;;;9791755;30;20255;-78
2022/12/29 12:27:02;;;;;;;9.83;1.70;;;;;10.40;100026.00;;;;9771474;30;20244;-79
2022/12/29 12:32:17;;;;;;;7.97;1.70;;;;;10.30;100025.00;;;;9756962;30;20202;-78
2022/12/29 12:37:45;;;;;;;8.70;1.70;;;;;10.30;100030.00;;;;9784861;30;20205;-78
2022/12/29 12:43:05;;;;;;;8.80;1.97;;;;;10.50;100028.00;;;;9785643;30;20633;-79
2022/12/29 12:48:49;;;;;;;9.20;2.57;;;;;10.70;100006.00;;;;9790009;30;20209;-79
2022/12/29 12:54:16;;;;;;;8.33;1.47;;;;;10.60;100014.00;;;;9813527;30;20580;-79
2022/12/29 12:59:39;;;;;;;25.23;14.80;;;;;10.50;100012.00;;;;9786211;30;20291;-79
2022/12/29 13:04:41;;;;;;;8.33;1.70;;;;;10.40;100019.00;;;;9805065;30;20220;-79
2022/12/29 13:09:46;;;;;;;7.93;1.47;;;;;10.30;100017.00;;;;9765624;30;20216;-79
2022/12/29 13:15:23;;;;;;;7.13;1.93;;;;;10.00;100015.00;;;;9783218;30;20217;-79
2022/12/29 13:20:36;;;;;;;9.37;1.73;;;;;9.90;100030.00;;;;9788337;30;20329;-78
2022/12/29 13:25:50;;;;;;;6.00;1.57;;;;;10.30;100027.00;;;;9769603;30;20256;-78
2022/12/29 13:31:11;;;;;;;7.37;1.70;;;;;10.70;100031.00;;;;9758743;30;20209;-78
2022/12/29 13:36:23;;;;;;;5.87;1.60;;;;;11.30;100039.00;;;;9757570;30;20197;-78
2022/12/29 13:41:41;;;;;;;4.03;1.33;;;;;11.60;100023.00;;;;9767816;30;20216;-79
2022/12/29 13:46:46;;;;;;;8.00;1.60;;;;;11.50;100042.00;;;;9801511;30;20216;-79
2022/12/29 13:51:55;;;;;;;5.77;1.47;;;;;11.40;100053.00;;;;9783409;30;20881;-80
2022/12/29 13:57:34;;;;;;;7.83;2.13;;;;;11.00;100029.00;;;;9772348;30;20201;-79
2022/12/29 14:02:50;;;;;;;5.47;1.43;;;;;10.70;100042.00;;;;9772930;30;20313;-80
2022/12/29 14:08:05;;;;;;;7.23;1.63;;;;;10.40;100036.00;;;;9787156;30;20236;-80
2022/12/29 14:13:17;;;;;;;8.57;1.90;;;;;10.40;100037.00;;;;9798583;30;20208;-80
2022/12/29 14:18:21;;;;;;;7.13;1.97;;;;;10.40;100043.00;;;;9777618;30;20569;-80
2022/12/29 14:23:28;;;;;;;7.67;1.70;;;;;10.40;100043.00;;;;9786559;30;20224;-79
2022/12/29 14:28:38;;;;;;;9.87;1.60;;;;;10.50;100053.00;;;;9772891;30;20216;-80
2022/12/29 14:33:41;;;;;;;7.60;2.20;;;;;10.30;100057.00;;;;9783792;30;20281;-80
2022/12/29 14:38:47;;;;;;;8.63;2.00;;;;;10.10;100078.00;;;;9758459;30;20212;-79
2022/12/29 14:43:56;;;;;;;3.90;0.80;;;;;9.60;100090.00;;;;9787469;30;20737;-78
2022/12/29 14:49:00;;;;;;;2.27;0.70;;;;;8.60;100101.00;;;;9787583;30;20209;-80
2022/12/29 14:54:31;;;;;;;3.27;0.80;;;;;8.00;100102.00;;;;9770901;30;20267;-80
2022/12/29 14:59:34;;;;;;;3.17;0.80;;;;;7.90;100109.00;;;;9775949;30;20202;-80
2022/12/29 15:04:39;;;;;;;6.73;1.23;;;;;7.70;100118.00;;;;9773822;30;20271;-80
2022/12/29 15:10:13;;;;;;;3.37;1.53;;;;;7.60;100119.00;;;;9802335;30;20202;-81
2022/12/29 15:15:27;;;;;;;3.63;0.73;;;;;7.50;100137.00;;;;9786387;30;20205;-80
2022/12/29 15:20:31;;;;;;;4.03;1.10;;;;;7.40;100146.00;;;;9762060;30;20205;-80
2022/12/29 15:25:33;;;;;;;5.10;1.17;;;;;7.30;100155.00;;;;9763439;30;20599;-80
2022/12/29 15:30:34;;;;;;;7.00;1.30;;;;;7.30;100151.00;;;;9769382;30;20297;-80
2022/12/29 15:35:37;;;;;;;3.30;1.03;;;;;7.20;100142.00;;;;9773123;30;20204;-80
2022/12/29 15:40:39;;;;;;;3.53;1.23;;;;;7.10;100123.00;;;;9779604;30;20212;-80
2022/12/29 15:45:41;;;;;;;7.13;1.20;;;;;7.00;100129.00;;;;9802862;30;20923;-80
2022/12/29 15:50:44;;;;;;;5.43;1.20;;;;;7.00;100128.00;;;;9787114;30;20200;-78
2022/12/29 15:55:47;;;;;;;5.33;1.93;;;;;7.00;100153.00;;;;9777110;30;20212;-78
2022/12/29 16:00:53;;;;;;;5.77;1.63;;;;;7.10;100156.00;;;;9790261;30;20341;-78
2022/12/29 16:06:27;;;;;;;6.43;1.77;;;;;7.20;100180.00;;;;9805339;30;20244;-78
2022/12/29 16:11:41;;;;;;;6.10;1.67;;;;;7.20;100194.00;;;;9820533;30;20205;-79
2022/12/29 16:16:45;;;;;;;5.90;1.87;;;;;7.20;100196.00;;;;9790704;30;20627;-79
2022/12/29 16:21:48;;;;;;;14.03;2.23;;;;;7.00;100195.00;;;;9803245;30;20217;-78
2022/12/29 16:27:01;;;;;;;9.87;2.43;;;;;6.90;100203.00;;;;9781213;30;20268;-78
2022/12/29 16:32:24;;;;;;;14.93;2.90;;;;;6.80;100203.00;;;;9776656;30;20737;-79
2022/12/29 16:37:31;;;;;;;15.07;4.00;;;;;6.80;100197.00;;;;9781119;30;20198;-78
2022/12/29 16:42:39;;;;;;;6.27;2.57;;;;;6.80;100185.00;;;;9788833;30;20712;-79
2022/12/29 16:48:06;;;;;;;10.83;2.63;;;;;6.80;100192.00;;;;9786314;30;20235;-78
2022/12/29 16:53:31;;;;;;;11.27;3.50;;;;;6.80;100201.00;;;;9785482;30;20211;-78
2022/12/29 16:58:35;;;;;;;12.53;3.07;;;;;6.80;100208.00;;;;9784278;30;20300;-79
2022/12/29 17:03:44;;;;;;;10.77;3.67;;;;;6.80;100212.00;;;;9780250;30;20243;-79
2022/12/29 17:08:47;;;;;;;15.00;3.20;;;;;6.80;100208.00;;;;9773239;30;20213;-78
2022/12/29 17:13:49;;;;;;;12.47;3.33;;;;;6.80;100227.00;;;;9755079;30;20194;-79
2022/12/29 17:18:51;;;;;;;12.97;3.23;;;;;6.80;100222.00;;;;9810218;30;20211;-78
2022/12/29 17:23:54;;;;;;;8.97;3.07;;;;;6.90;100233.00;;;;9790653;30;20235;-79
2022/12/29 17:28:56;;;;;;;7.87;2.43;;;;;7.00;100244.00;;;;9803586;30;20233;-78
2022/12/29 17:33:59;;;;;;;9.70;3.00;;;;;7.00;100258.00;;;;9789021;30;20193;-79
2022/12/29 17:39:00;;;;;;;8.97;2.90;;;;;7.00;100257.00;;;;9788637;30;20234;-79
2022/12/29 17:44:04;;;;;;;8.90;2.90;;;;;6.90;100254.00;;;;9782347;30;20325;-79
2022/12/29 17:49:11;;;;;;;11.83;2.67;;;;;6.90;100268.00;;;;9771613;30;20207;-80
2022/12/29 17:54:19;;;;;;;11.00;2.63;;;;;6.80;100262.00;;;;9790117;30;20495;-79
2022/12/29 17:59:20;;;;;;;10.67;2.13;;;;;6.80;100262.00;;;;9775512;30;20204;-80
2022/12/29 18:04:22;;;;;;;10.20;2.07;;;;;6.80;100264.00;;;;9792630;30;20236;-79
2022/12/29 18:09:24;;;;;;;12.43;2.87;;;;;6.80;100275.00;;;;9771913;30;20224;-79
2022/12/29 18:14:30;;;;;;;9.23;2.13;;;;;6.80;100279.00;;;;9784681;30;20204;-79
2022/12/29 18:19:32;;;;;;;9.27;2.33;;;;;6.80;100275.00;;;;9782753;30;20292;-79
2022/12/29 18:24:40;;;;;;;12.43;1.83;;;;;6.80;100284.00;;;;9771351;30;20952;-79
2022/12/29 18:29:42;;;;;;;6.07;1.27;;;;;6.80;100288.00;;;;9785980;30;20661;-80
2022/12/29 18:34:44;;;;;;;4.67;1.97;;;;;6.80;100288.00;;;;9771245;30;20258;-80
2022/12/29 18:39:46;;;;;;;9.20;1.80;;;;;6.90;100294.00;;;;9810828;30;20313;-80
2022/12/29 18:44:49;;;;;;;10.17;2.03;;;;;6.90;100304.00;;;;9765580;30;20225;-79
2022/12/29 18:49:53;;;;;;;7.93;1.93;;;;;7.00;100308.00;;;;9782702;30;20724;-80
2022/12/29 18:54:55;;;;;;;10.17;1.73;;;;;7.00;100318.00;;;;9799514;30;20216;-80
2022/12/29 18:59:57;;;;;;;10.53;2.37;;;;;7.00;100332.00;;;;9790872;30;20703;-80
2022/12/29 19:04:59;;;;;;;10.27;2.30;;;;;6.90;100321.00;;;;9787018;30;20226;-80
2022/12/29 19:10:08;;;;;;;14.63;3.00;;;;;6.90;100324.00;;;;9787524;30;20205;-80
2022/12/29 19:15:32;;;;;;;9.07;1.97;;;;;6.80;100330.00;;;;9805751;30;21612;-79
2022/12/29 19:20:38;;;;;;;14.70;2.80;;;;;6.80;100346.00;;;;9779689;30;20205;-79
2022/12/29 19:25:41;;;;;;;8.50;1.90;;;;;6.70;100343.00;;;;9781628;30;20228;-81
2022/12/29 19:30:43;;;;;;;14.63;2.50;;;;;6.70;100348.00;;;;9788116;30;20658;-80
2022/12/29 19:35:58;;;;;;;10.00;2.10;;;;;6.70;100342.00;;;;9774258;30;20551;-82
2022/12/29 19:41:00;;;;;;;8.60;1.80;;;;;6.70;100339.00;;;;9798737;30;20205;-79
2022/12/29 19:46:10;;;;;;;10.80;2.03;;;;;6.70;100333.00;;;;9782407;30;20436;-79
2022/12/29 19:51:17;;;;;;;9.53;1.97;;;;;6.70;100340.00;;;;9776728;30;20193;-79
2022/12/29 19:56:19;;;;;;;9.40;1.93;;;;;6.70;100351.00;;;;9776444;30;20212;-79
2022/12/29 20:01:22;;;;;;;9.27;2.30;;;;;6.70;100349.00;;;;9771559;30;20546;-79
2022/12/29 20:06:24;;;;;;;14.63;3.23;;;;;6.80;100359.00;;;;9770631;30;20316;-79
2022/12/29 20:11:26;;;;;;;8.60;2.47;;;;;6.90;100356.00;;;;9787597;30;20239;-80
2022/12/29 20:16:28;;;;;;;16.07;2.90;;;;;6.80;100367.00;;;;9788963;30;20205;-79
2022/12/29 20:21:30;;;;;;;9.67;2.50;;;;;6.80;100378.00;;;;9754237;30;20220;-80
2022/12/29 20:26:32;;;;;;;9.27;2.53;;;;;6.70;100370.00;;;;9790638;30;20652;-79
2022/12/29 20:31:37;;;;;;;8.93;2.53;;;;;6.70;100365.00;;;;9786769;30;20207;-78
2022/12/29 20:36:42;;;;;;;11.10;2.40;;;;;6.70;100355.00;;;;9788712;30;20193;-80
2022/12/29 20:41:46;;;;;;;12.63;1.97;;;;;6.80;100365.00;;;;9769742;30;20696;-78
2022/12/29 20:46:48;;;;;;;16.23;2.33;;;;;6.80;100367.00;;;;9765209;30;20202;-79
2022/12/29 20:51:50;;;;;;;13.17;2.47;;;;;6.80;100365.00;;;;9762545;30;20212;-79
2022/12/29 20:57:07;;;;;;;14.10;2.83;;;;;6.70;100370.00;;;;9812536;30;20200;-80
2022/12/29 21:02:20;;;;;;;9.53;2.30;;;;;6.80;100379.00;;;;9818264;30;20220;-79
2022/12/29 21:07:23;;;;;;;12.80;1.67;;;;;6.70;100404.00;;;;9766905;30;20205;-80
2022/12/29 21:12:25;;;;;;;8.70;2.23;;;;;6.70;100408.00;;;;9762795;30;20208;-79
2022/12/29 21:17:27;;;;;;;10.90;2.73;;;;;6.60;100411.00;;;;9790472;30;20208;-79
2022/12/29 21:22:29;;;;;;;10.40;3.07;;;;;6.50;100395.00;;;;9808673;30;20442;-81
2022/12/29 21:27:32;;;;;;;10.17;2.20;;;;;6.60;100408.00;;;;9771987;30;20268;-79
2022/12/29 21:32:34;;;;;;;7.20;2.33;;;;;6.50;100402.00;;;;9779248;30;20304;-79
2022/12/29 21:37:36;;;;;;;9.70;2.60;;;;;6.50;100410.00;;;;9764459;30;20216;-79
2022/12/29 21:42:39;;;;;;;6.50;1.97;;;;;6.50;100414.00;;;;9785472;30;20692;-79
2022/12/29 21:53:01;;;;;;;14.23;2.40;;;;;6.50;100411.00;;;;9774254;30;20212;-79
2022/12/29 22:14:05;;;;;;;14.83;2.17;;;;;6.10;100451.00;;;;9772312;30;20291;-79
2022/12/29 22:19:09;;;;;;;9.97;2.17;;;;;6.10;100461.00;;;;9762522;30;20209;-79
2022/12/29 22:24:12;;;;;;;11.50;2.30;;;;;6.10;100460.00;;;;9786897;30;20360;-78
2022/12/29 22:29:14;;;;;;;11.27;2.23;;;;;6.20;100462.00;;;;9797160;30;20669;-81
2022/12/29 22:34:16;;;;;;;8.60;2.07;;;;;6.20;100476.00;;;;9785449;30;20192;-81
2022/12/29 22:39:18;;;;;;;8.37;2.53;;;;;6.20;100479.00;;;;9783047;30;20209;-81
2022/12/29 22:44:20;;;;;;;11.07;2.40;;;;;6.20;100497.00;;;;9792712;30;20213;-81
2022/12/29 22:49:21;;;;;;;9.97;2.30;;;;;6.10;100488.00;;;;9771545;30;20717;-81
2022/12/29 22:54:23;;;;;;;7.47;1.90;;;;;6.00;100494.00;;;;9774462;30;20263;-79
2022/12/29 22:59:26;;;;;;;11.13;2.27;;;;;6.00;100493.00;;;;9773731;30;20301;-79
2022/12/29 23:04:28;;;;;;;10.13;1.67;;;;;6.00;100488.00;;;;9790587;30;20268;-79
2022/12/29 23:09:50;;;;;;;9.63;1.90;;;;;6.10;100489.00;;;;9791850;30;20205;-79
2022/12/29 23:14:52;;;;;;;16.33;2.17;;;;;6.10;100511.00;;;;9777927;30;20666;-79
2022/12/29 23:19:54;;;;;;;12.60;2.27;;;;;6.20;100502.00;;;;9773410;30;20296;-79
2022/12/29 23:24:56;;;;;;;10.03;2.37;;;;;6.10;100502.00;;;;9788034;30;20229;-80
2022/12/29 23:29:58;;;;;;;8.27;2.27;;;;;6.20;100493.00;;;;9788901;30;20209;-79
2022/12/29 23:35:00;;;;;;;10.63;1.90;;;;;6.20;100485.00;;;;9792384;30;20204;-79
2022/12/29 23:40:02;;;;;;;11.90;1.87;;;;;6.30;100482.00;;;;9763087;30;20251;-79
2022/12/29 23:45:05;;;;;;;9.60;2.20;;;;;6.30;100493.00;;;;9791381;30;20202;-79
2022/12/29 23:50:07;;;;;;;12.17;2.13;;;;;6.20;100495.00;;;;9794482;30;20259;-79
2022/12/29 23:55:10;;;;;;;9.17;1.93;;;;;6.20;100508.00;;;;9771282;30;20263;-80
